createdAt,value
2023-02-19T00:00:44.444Z,72.50
2023-02-19T00:03:52.237Z,72.39
2023-02-19T00:06:53.748Z,71.97
2023-02-19T00:09:55.261Z,72.52
2023-02-19T00:12:56.935Z,72.45
2023-02-19T00:15:58.494Z,71.88
2023-02-19T00:19:02.076Z,72.32
2023-02-19T00:22:03.528Z,72.39
2023-02-19T00:25:05.197Z,72.93
2023-02-19T00:28:06.652Z,72.65
2023-02-19T00:31:13.137Z,73.15
2023-02-19T00:34:15.031Z,73.04
2023-02-19T00:37:16.815Z,72.36
2023-02-19T00:40:18.256Z,72.33
2023-02-19T00:43:19.708Z,72.39
2023-02-19T00:46:41.206Z,72.86
2023-02-19T00:49:43.759Z,72.35
2023-02-19T00:52:45.206Z,71.86
2023-02-19T00:55:46.630Z,72.03
2023-02-19T00:58:48.806Z,71.75
2023-02-19T01:01:50.386Z,71.54
2023-02-19T01:04:52.896Z,71.60
2023-02-19T01:07:54.403Z,71.99
2023-02-19T01:10:55.891Z,71.83
2023-02-19T01:13:59.172Z,71.90
2023-02-19T01:17:00.684Z,72.46
2023-02-19T01:20:02.138Z,72.57
2023-02-19T01:23:03.567Z,72.41
2023-02-19T01:26:11.823Z,71.89
2023-02-19T01:29:13.399Z,72.64
2023-02-19T01:32:14.918Z,72.51
2023-02-19T01:35:16.535Z,72.80
2023-02-19T01:38:17.972Z,72.30
2023-02-19T01:41:22.455Z,72.37
2023-02-19T01:44:23.849Z,72.04
2023-02-19T01:47:25.526Z,72.51
2023-02-19T01:50:29.734Z,73.06
2023-02-19T01:53:36.189Z,73.04
2023-02-19T01:56:42.682Z,72.99
2023-02-19T01:59:45.660Z,72.82
2023-02-19T02:02:51.632Z,72.81
2023-02-19T02:06:15.831Z,72.58
2023-02-19T02:09:43.404Z,72.37
2023-02-19T02:12:44.883Z,73.42
2023-02-19T02:16:08.196Z,73.55
2023-02-19T02:19:50.983Z,73.60
2023-02-19T02:22:55.574Z,73.80
2023-02-19T02:26:25.599Z,74.14
2023-02-19T02:29:45.950Z,74.21
2023-02-19T02:33:09.116Z,74.30
2023-02-19T02:36:27.047Z,74.30
2023-02-19T02:39:32.135Z,74.85
2023-02-19T02:42:34.943Z,74.60
2023-02-19T02:45:43.591Z,75.31
2023-02-19T02:48:59.956Z,74.36
2023-02-19T02:52:22.219Z,74.41
2023-02-19T02:55:26.104Z,74.50
2023-02-19T02:58:28.340Z,75.33
2023-02-19T03:02:08.336Z,75.52
2023-02-19T03:05:34.185Z,78.27
2023-02-19T03:09:08.604Z,80.26
2023-02-19T03:12:36.944Z,80.96
2023-02-19T03:16:24.799Z,81.60
2023-02-19T03:19:28.668Z,82.65
2023-02-19T03:22:34.534Z,83.60
2023-02-19T03:25:56.248Z,82.61
2023-02-19T03:29:23.679Z,82.95
2023-02-19T03:33:03.248Z,82.70
2023-02-19T03:36:08.138Z,82.26
2023-02-19T03:39:17.730Z,82.70
2023-02-19T03:42:48.566Z,81.86
2023-02-19T03:45:51.165Z,81.95
2023-02-19T03:49:10.961Z,81.09
2023-02-19T03:52:18.299Z,80.67
2023-02-19T03:55:52.469Z,79.81
2023-02-19T03:59:14.699Z,79.94
2023-02-19T04:02:39.380Z,79.89
2023-02-19T04:05:47.274Z,79.14
2023-02-19T04:08:54.909Z,79.53
2023-02-19T04:11:58.641Z,79.16
2023-02-19T04:15:06.447Z,79.52
2023-02-19T04:18:12.539Z,79.27
2023-02-19T04:21:15.576Z,79.47
2023-02-19T04:24:25.253Z,79.32
2023-02-19T04:27:26.977Z,79.34
2023-02-19T04:30:28.647Z,79.72
2023-02-19T04:33:30.237Z,78.60
2023-02-19T04:36:32.896Z,78.50
2023-02-19T04:39:34.784Z,78.74
2023-02-19T04:42:36.278Z,78.63
2023-02-19T04:45:38.844Z,77.06
2023-02-19T04:48:40.324Z,77.82
2023-02-19T04:51:42.239Z,77.61
2023-02-19T04:54:43.709Z,78.28
2023-02-19T04:57:45.190Z,77.63
2023-02-19T05:00:46.705Z,78.35
2023-02-19T05:03:48.206Z,79.08
2023-02-19T05:06:50.322Z,78.81
2023-02-19T05:09:51.885Z,78.81
2023-02-19T05:12:57.606Z,78.69
2023-02-19T05:16:02.051Z,79.28
2023-02-19T05:19:03.715Z,79.11
2023-02-19T05:22:05.260Z,79.11
2023-02-19T05:25:06.885Z,79.91
2023-02-19T05:28:17.123Z,79.60
2023-02-19T05:31:19.315Z,79.35
2023-02-19T05:34:20.882Z,79.35
2023-02-19T05:37:22.577Z,80.39
2023-02-19T05:40:23.997Z,79.85
2023-02-19T05:43:25.484Z,81.15
2023-02-19T05:46:32.393Z,81.45
2023-02-19T05:49:33.926Z,82.17
2023-02-19T05:52:35.373Z,82.34
2023-02-19T05:55:36.908Z,84.20
2023-02-19T05:58:38.358Z,84.14
2023-02-19T06:01:39.912Z,85.09
2023-02-19T06:04:41.348Z,85.25
2023-02-19T06:07:43.006Z,85.57
2023-02-19T06:10:44.461Z,85.82
2023-02-19T06:13:46.567Z,86.33
2023-02-19T06:16:48.033Z,86.59
2023-02-19T06:19:49.467Z,86.79
2023-02-19T06:22:51.862Z,87.27
2023-02-19T06:25:53.325Z,87.24
2023-02-19T06:28:54.835Z,87.62
2023-02-19T06:31:56.441Z,88.13
2023-02-19T06:34:57.985Z,88.09
2023-02-19T06:37:59.519Z,88.09
2023-02-19T06:41:02.293Z,87.73
2023-02-19T06:44:03.866Z,87.83
2023-02-19T06:47:05.373Z,88.11
2023-02-19T06:50:07.009Z,88.41
2023-02-19T06:53:09.115Z,88.10
2023-02-19T06:56:30.686Z,88.61
2023-02-19T06:59:32.143Z,88.88
2023-02-19T07:02:33.604Z,88.84
2023-02-19T07:05:35.076Z,88.73
2023-02-19T07:08:36.652Z,88.95
2023-02-19T07:11:39.377Z,89.35
2023-02-19T07:14:40.856Z,89.29
2023-02-19T07:17:42.329Z,88.89
2023-02-19T07:20:43.793Z,89.56
2023-02-19T07:23:46.002Z,89.13
2023-02-19T07:26:47.527Z,88.66
2023-02-19T07:29:49.125Z,89.13
2023-02-19T07:32:50.622Z,89.66
2023-02-19T07:35:52.327Z,89.60
2023-02-19T07:38:58.215Z,88.78
2023-02-19T07:41:59.711Z,88.57
2023-02-19T07:45:01.886Z,88.90
2023-02-19T07:48:03.520Z,88.57
2023-02-19T07:51:06.853Z,88.47
2023-02-19T07:54:08.508Z,87.65
2023-02-19T07:57:10.055Z,88.25
2023-02-19T08:00:12.017Z,87.28
2023-02-19T08:03:16.612Z,86.75
2023-02-19T08:06:18.064Z,87.30
2023-02-19T08:09:19.496Z,86.15
2023-02-19T08:12:39.361Z,86.46
2023-02-19T08:15:40.901Z,86.63
2023-02-19T08:18:42.362Z,87.56
2023-02-19T08:21:43.860Z,89.14
2023-02-19T08:24:45.365Z,89.45
2023-02-19T08:27:46.801Z,91.70
2023-02-19T08:30:49.060Z,93.08
2023-02-19T08:33:50.614Z,94.07
2023-02-19T08:36:52.075Z,93.93
2023-02-19T08:39:53.518Z,93.97
2023-02-19T08:42:55.035Z,94.47
2023-02-19T08:45:56.627Z,93.42
2023-02-19T08:48:58.227Z,92.70
2023-02-19T08:51:59.878Z,89.63
2023-02-19T08:55:02.384Z,87.54
2023-02-19T08:58:04.144Z,87.24
2023-02-19T09:01:15.595Z,86.54
2023-02-19T09:04:17.275Z,86.49
2023-02-19T09:07:19.240Z,86.55
2023-02-19T09:10:20.972Z,85.90
2023-02-19T09:13:22.460Z,85.29
2023-02-19T09:16:23.970Z,85.40
2023-02-19T09:19:26.306Z,85.81
2023-02-19T09:22:27.811Z,85.88
2023-02-19T09:25:29.372Z,84.45
2023-02-19T09:28:30.768Z,83.12
2023-02-19T09:31:35.207Z,81.71
2023-02-19T09:34:37.856Z,80.19
2023-02-19T09:37:39.306Z,78.57
2023-02-19T09:40:40.972Z,76.35
2023-02-19T09:43:43.708Z,75.90
2023-02-19T09:46:51.178Z,75.27
2023-02-19T09:50:12.554Z,73.51
2023-02-19T09:53:41.802Z,72.62
2023-02-19T09:56:43.504Z,71.24
2023-02-19T09:59:51.834Z,71.56
2023-02-19T10:03:17.167Z,69.60
2023-02-19T10:06:24.528Z,70.69
2023-02-19T10:09:27.168Z,70.41
2023-02-19T10:12:31.027Z,68.78
2023-02-19T10:15:38.830Z,68.05
2023-02-19T10:18:42.920Z,66.66
2023-02-19T10:21:44.519Z,66.74
2023-02-19T10:24:52.146Z,67.25
2023-02-19T10:27:53.758Z,66.53
2023-02-19T10:31:00.971Z,64.96
2023-02-19T10:34:02.872Z,65.31
2023-02-19T10:37:04.551Z,63.90
2023-02-19T10:40:15.248Z,63.07
2023-02-19T10:43:31.101Z,63.75
2023-02-19T10:46:41.247Z,63.32
2023-02-19T10:49:46.338Z,62.97
2023-02-19T10:52:53.136Z,62.74
2023-02-19T10:56:08.088Z,62.19
2023-02-19T10:59:18.659Z,63.44
2023-02-19T11:02:21.652Z,63.28
2023-02-19T11:05:23.701Z,63.77
2023-02-19T11:08:25.328Z,64.47
2023-02-19T11:11:39.004Z,63.63
2023-02-19T11:14:44.913Z,64.33
2023-02-19T11:17:58.872Z,64.32
2023-02-19T11:21:25.125Z,63.92
2023-02-19T11:24:34.776Z,63.83
2023-02-19T11:27:52.908Z,63.93
2023-02-19T11:30:54.478Z,63.91
2023-02-19T11:34:14.117Z,63.93
2023-02-19T11:37:17.729Z,63.93
2023-02-19T11:40:21.575Z,64.29
2023-02-19T11:43:35.602Z,64.53
2023-02-19T11:46:51.183Z,65.04
2023-02-19T11:50:02.931Z,66.06
2023-02-19T11:53:28.699Z,67.75
2023-02-19T11:56:36.252Z,67.43
2023-02-19T11:59:48.000Z,68.18
2023-02-19T12:03:04.387Z,67.44
2023-02-19T12:06:22.995Z,67.00
2023-02-19T12:09:42.183Z,66.61
2023-02-19T12:12:56.030Z,67.03
2023-02-19T12:16:09.012Z,66.95
2023-02-19T12:19:35.523Z,66.24
2023-02-19T12:22:58.167Z,65.58
2023-02-19T12:25:59.639Z,65.01
2023-02-19T12:29:24.989Z,65.69
2023-02-19T12:32:35.661Z,66.14
2023-02-19T12:35:55.524Z,66.75
2023-02-19T12:39:08.262Z,66.84
2023-02-19T12:42:36.090Z,66.57
2023-02-19T12:45:56.192Z,65.11
2023-02-19T12:49:05.677Z,64.41
2023-02-19T12:52:16.100Z,63.54
2023-02-19T12:55:32.478Z,62.83
2023-02-19T12:58:48.714Z,62.74
2023-02-19T13:02:06.154Z,62.61
2023-02-19T13:05:28.200Z,62.38
2023-02-19T13:08:48.846Z,62.20
2023-02-19T13:12:08.111Z,62.14
2023-02-19T13:15:41.781Z,61.25
2023-02-19T13:18:48.432Z,60.93
2023-02-19T13:22:21.779Z,60.22
2023-02-19T13:25:44.814Z,59.15
2023-02-19T13:29:11.221Z,58.91
2023-02-19T13:32:39.378Z,59.04
2023-02-19T13:35:56.047Z,59.39
2023-02-19T13:38:59.627Z,59.65
2023-02-19T13:42:01.783Z,60.05
2023-02-19T13:45:06.281Z,60.13
2023-02-19T13:48:32.338Z,61.29
2023-02-19T13:51:33.732Z,61.48
2023-02-19T13:54:40.009Z,61.37
2023-02-19T13:57:41.696Z,62.10
2023-02-19T14:00:53.801Z,61.97
2023-02-19T14:04:16.861Z,62.06
2023-02-19T14:07:18.296Z,62.09
2023-02-19T14:10:57.773Z,62.13
2023-02-19T14:14:06.370Z,62.47
2023-02-19T14:17:29.596Z,62.90
2023-02-19T14:20:45.351Z,63.42
2023-02-19T14:23:56.707Z,63.19
2023-02-19T14:27:00.090Z,63.41
2023-02-19T14:30:02.753Z,63.69
2023-02-19T14:33:10.945Z,63.35
2023-02-19T14:36:12.692Z,63.71
2023-02-19T14:39:22.725Z,64.43
2023-02-19T14:42:32.442Z,63.74
2023-02-19T14:45:43.236Z,63.64
2023-02-19T14:48:47.881Z,63.21
2023-02-19T14:51:54.069Z,63.12
2023-02-19T14:55:00.280Z,63.01
2023-02-19T14:58:10.307Z,62.92
2023-02-19T15:01:28.426Z,62.74
2023-02-19T15:04:35.917Z,63.73
2023-02-19T15:07:37.394Z,63.26
2023-02-19T15:10:42.119Z,63.83
2023-02-19T15:13:45.714Z,63.73
2023-02-19T15:16:47.797Z,64.40
2023-02-19T15:19:49.321Z,64.07
2023-02-19T15:22:52.389Z,64.40
2023-02-19T15:25:53.964Z,64.73
2023-02-19T15:29:03.981Z,64.99
2023-02-19T15:32:26.673Z,64.57
2023-02-19T15:35:29.857Z,64.82
2023-02-19T15:38:33.180Z,65.17
2023-02-19T15:41:35.226Z,65.29
2023-02-19T15:45:01.349Z,65.47
2023-02-19T15:48:15.764Z,65.97
2023-02-19T15:51:24.363Z,66.84
2023-02-19T15:54:52.797Z,66.49
2023-02-19T15:58:04.457Z,66.33
2023-02-19T16:01:30.048Z,66.67
2023-02-19T16:04:34.304Z,67.04
2023-02-19T16:07:36.086Z,66.61
2023-02-19T16:10:38.358Z,67.61
2023-02-19T16:13:39.842Z,67.32
2023-02-19T16:16:42.765Z,67.63
2023-02-19T16:19:56.806Z,67.84
2023-02-19T16:23:02.605Z,68.12
2023-02-19T16:26:04.345Z,68.14
2023-02-19T16:29:21.043Z,68.23
2023-02-19T16:32:22.629Z,68.12
2023-02-19T16:35:39.792Z,68.01
2023-02-19T16:38:41.258Z,68.62
2023-02-19T16:41:46.565Z,68.80
2023-02-19T16:44:48.134Z,68.83
2023-02-19T16:47:51.178Z,69.25
2023-02-19T16:50:52.848Z,68.87
2023-02-19T16:53:54.284Z,69.41
2023-02-19T16:56:55.762Z,69.66
2023-02-19T16:59:57.256Z,70.25
2023-02-19T17:03:03.025Z,69.89
2023-02-19T17:06:04.857Z,69.92
2023-02-19T17:09:08.416Z,69.73
2023-02-19T17:12:15.504Z,69.94
2023-02-19T17:15:16.957Z,69.75
2023-02-19T17:18:18.523Z,70.46
2023-02-19T17:21:23.607Z,70.31
2023-02-19T17:24:25.226Z,70.33
2023-02-19T17:27:26.689Z,70.40
2023-02-19T17:30:30.875Z,70.45
2023-02-19T17:33:32.371Z,69.95
2023-02-19T17:36:33.810Z,70.00
2023-02-19T17:39:35.416Z,69.68
2023-02-19T17:42:36.871Z,70.54
2023-02-19T17:45:38.684Z,69.93
2023-02-19T17:48:40.093Z,70.61
2023-02-19T17:51:41.556Z,70.65
2023-02-19T17:54:43.903Z,70.17
2023-02-19T17:57:59.456Z,70.16
2023-02-19T18:01:01.121Z,70.08
2023-02-19T18:04:02.674Z,70.27
2023-02-19T18:07:04.316Z,70.52
2023-02-19T18:10:07.132Z,70.16
2023-02-19T18:13:09.365Z,70.36
2023-02-19T18:16:11.103Z,70.61
2023-02-19T18:19:12.561Z,70.69
2023-02-19T18:22:13.998Z,71.03
2023-02-19T18:25:16.910Z,70.80
2023-02-19T18:28:18.391Z,71.40
2023-02-19T18:31:19.856Z,71.04
2023-02-19T18:34:21.942Z,70.76
2023-02-19T18:37:25.603Z,70.39
2023-02-19T18:40:27.290Z,70.45
2023-02-19T18:43:28.781Z,69.99
2023-02-19T18:46:32.062Z,69.87
2023-02-19T18:49:33.877Z,69.46
2023-02-19T18:52:35.614Z,69.54
2023-02-19T18:55:37.056Z,69.18
2023-02-19T18:58:38.520Z,69.17
2023-02-19T19:01:40.051Z,69.30
2023-02-19T19:04:43.028Z,70.08
2023-02-19T19:07:44.494Z,69.39
2023-02-19T19:10:45.950Z,69.34
2023-02-19T19:13:47.374Z,69.53
2023-02-19T19:16:48.901Z,69.65
2023-02-19T19:19:50.493Z,70.27
2023-02-19T19:22:52.999Z,69.94
2023-02-19T19:25:54.736Z,70.09
2023-02-19T19:28:56.604Z,69.95
2023-02-19T19:31:58.388Z,70.29
2023-02-19T19:35:00.132Z,70.34
2023-02-19T19:38:01.620Z,70.78
2023-02-19T19:41:03.826Z,71.24
2023-02-19T19:44:06.537Z,70.88
2023-02-19T19:47:08.054Z,71.59
2023-02-19T19:50:10.385Z,71.33
2023-02-19T19:53:11.921Z,71.55
2023-02-19T19:56:13.438Z,71.85
2023-02-19T19:59:16.560Z,71.87
2023-02-19T20:02:19.077Z,71.81
2023-02-19T20:05:20.725Z,71.91
2023-02-19T20:08:22.325Z,71.73
2023-02-19T20:11:23.996Z,71.67
2023-02-19T20:14:25.847Z,71.49
2023-02-19T20:17:28.842Z,71.42
2023-02-19T20:20:30.558Z,71.49
2023-02-19T20:23:32.962Z,72.23
2023-02-19T20:26:34.611Z,72.06
2023-02-19T20:29:36.449Z,72.30
2023-02-19T20:32:37.898Z,72.56
2023-02-19T20:35:39.378Z,72.83
2023-02-19T20:38:43.373Z,72.70
2023-02-19T20:41:49.691Z,73.14
2023-02-19T20:44:51.164Z,73.19
2023-02-19T20:47:52.644Z,72.89
2023-02-19T20:50:59.292Z,73.72
2023-02-19T20:54:00.874Z,73.78
2023-02-19T20:57:05.154Z,73.83
2023-02-19T21:00:08.210Z,74.19
2023-02-19T21:03:11.540Z,74.16
2023-02-19T21:06:13.237Z,74.52
2023-02-19T21:09:15.006Z,74.68
2023-02-19T21:12:16.572Z,74.35
2023-02-19T21:15:18.393Z,74.58
2023-02-19T21:18:20.017Z,74.46
2023-02-19T21:21:25.301Z,74.71
2023-02-19T21:24:26.828Z,75.30
2023-02-19T21:27:28.314Z,75.55
2023-02-19T21:30:29.801Z,75.85
2023-02-19T21:33:31.306Z,75.88
2023-02-19T21:36:32.994Z,76.59
2023-02-19T21:39:34.671Z,77.08
2023-02-19T21:42:36.158Z,77.70
2023-02-19T21:45:37.629Z,78.23
2023-02-19T21:48:39.186Z,78.40
2023-02-19T21:51:42.908Z,79.07
2023-02-19T21:54:45.876Z,79.62
2023-02-19T21:57:48.245Z,79.61
2023-02-19T22:00:49.838Z,80.16
2023-02-19T22:03:51.648Z,80.77
2023-02-19T22:06:56.975Z,80.42
2023-02-19T22:09:58.522Z,80.41
2023-02-19T22:12:59.989Z,79.90
2023-02-19T22:16:02.161Z,80.00
2023-02-19T22:19:03.930Z,80.55
2023-02-19T22:22:05.508Z,80.68
2023-02-19T22:25:07.128Z,80.87
2023-02-19T22:28:08.585Z,80.97
2023-02-19T22:31:10.126Z,81.16
2023-02-19T22:34:11.785Z,81.77
2023-02-19T22:37:13.277Z,82.34
2023-02-19T22:40:14.785Z,82.81
2023-02-19T22:43:19.409Z,83.44
2023-02-19T22:46:26.152Z,83.99
2023-02-19T22:49:27.627Z,85.23
2023-02-19T22:52:29.166Z,86.27
2023-02-19T22:55:30.996Z,86.40
2023-02-19T22:58:32.433Z,86.66
2023-02-19T23:01:33.919Z,87.00
2023-02-19T23:04:35.491Z,87.65
2023-02-19T23:07:37.080Z,87.82
2023-02-19T23:10:40.840Z,88.51
2023-02-19T23:13:42.503Z,88.67
2023-02-19T23:16:44.509Z,88.40
2023-02-19T23:19:46.143Z,88.13
2023-02-19T23:22:47.823Z,88.26
2023-02-19T23:25:49.320Z,88.28
2023-02-19T23:28:50.850Z,88.16
2023-02-19T23:31:53.544Z,88.66
2023-02-19T23:34:55.153Z,88.49
2023-02-19T23:37:56.721Z,88.63
2023-02-19T23:40:58.844Z,88.41
2023-02-19T23:44:00.299Z,88.26
2023-02-19T23:47:01.778Z,87.84
2023-02-19T23:50:03.290Z,87.82
2023-02-19T23:53:04.859Z,87.93
2023-02-19T23:56:07.002Z,88.01
2023-02-19T23:59:08.505Z,88.50
